Aviation Digital Data Service (ADDS)

Output produced by METARs form (1813 UTC 24 June 2019)
found at http://www.aviationweather.gov/metar/data/
 
METAR text: VEAT 241400Z 00000KT 5000 BR FEW020 SCT100 31/28 Q1004 NOSIG
Conditions at: VEAT (AGARTALA , IN) observed 1400 UTC 24 June 2019
Temperature: 31.0°C (88°F)
Dewpoint: 28.0°C (82°F) [RH = 84%]
Pressure (altimeter): 29.65 inches Hg (1004.0 mb)
Winds: calm
Visibility: 3 miles ( 5 km)
Ceiling: at least 12,000 feet AGL
Clouds: few clouds at 2000 feet AGL
scattered clouds at 10000 feet AGL
Weather: BR  (mist)

METAR text: VEAT 241330Z 00000KT 5000 BR FEW020 SCT100 32/28 Q1003 NOSIG
Conditions at: VEAT (AGARTALA , IN) observed 1330 UTC 24 June 2019
Temperature: 32.0°C (90°F)
Dewpoint: 28.0°C (82°F) [RH = 80%]
Pressure (altimeter): 29.62 inches Hg (1003.0 mb)
Winds: calm
Visibility: 3 miles ( 5 km)
Ceiling: at least 12,000 feet AGL
Clouds: few clouds at 2000 feet AGL
scattered clouds at 10000 feet AGL
Weather: BR  (mist)

METAR text: VEAT 241300Z 00000KT 5000 HZ FEW020 SCT100 33/28 Q1003 NOSIG
Conditions at: VEAT (AGARTALA , IN) observed 1300 UTC 24 June 2019
Temperature: 33.0°C (91°F)
Dewpoint: 28.0°C (82°F) [RH = 75%]
Pressure (altimeter): 29.62 inches Hg (1003.0 mb)
Winds: calm
Visibility: 3 miles ( 5 km)
Ceiling: at least 12,000 feet AGL
Clouds: few clouds at 2000 feet AGL
scattered clouds at 10000 feet AGL
Weather: HZ  (haze)

METAR text: VEAT 241230Z 24002KT 6000 FEW020 SCT100 34/28 Q1003 NOSIG
Conditions at: VEAT (AGARTALA , IN) observed 1230 UTC 24 June 2019
Temperature: 34.0°C (93°F)
Dewpoint: 28.0°C (82°F) [RH = 71%]
Pressure (altimeter): 29.62 inches Hg (1003.0 mb)
Winds: from the WSW (240 degrees) at 2 MPH (2 knots; 1.0 m/s)
Visibility: 4 miles ( 6 km)
Ceiling: at least 12,000 feet AGL
Clouds: few clouds at 2000 feet AGL
scattered clouds at 10000 feet AGL
Weather: no significant weather observed at this time

METAR text: VEAT 241200Z 26002KT 6000 FEW020 SCT100 35/28 Q1003 NOSIG
Conditions at: VEAT (AGARTALA , IN) observed 1200 UTC 24 June 2019
Temperature: 35.0°C (95°F)
Dewpoint: 28.0°C (82°F) [RH = 67%]
Pressure (altimeter): 29.62 inches Hg (1003.0 mb)
Winds: from the W (260 degrees) at 2 MPH (2 knots; 1.0 m/s)
Visibility: 4 miles ( 6 km)
Ceiling: at least 12,000 feet AGL
Clouds: few clouds at 2000 feet AGL
scattered clouds at 10000 feet AGL
Weather: no significant weather observed at this time

METAR text: VEAT 241130Z 26002KT 6000 FEW020 SCT025 35/28 Q1002 NOSIG
Conditions at: VEAT (AGARTALA , IN) observed 1130 UTC 24 June 2019
Temperature: 35.0°C (95°F)
Dewpoint: 28.0°C (82°F) [RH = 67%]
Pressure (altimeter): 29.59 inches Hg (1002.0 mb)
Winds: from the W (260 degrees) at 2 MPH (2 knots; 1.0 m/s)
Visibility: 4 miles ( 6 km)
Ceiling: at least 12,000 feet AGL
Clouds: few clouds at 2000 feet AGL
scattered clouds at 2500 feet AGL
Weather: no significant weather observed at this time

METAR text: VEAT 241100Z 25002KT 6000 FEW020 SCT025 35/28 Q1002 NOSIG
Conditions at: VEAT (AGARTALA , IN) observed 1100 UTC 24 June 2019
Temperature: 35.0°C (95°F)
Dewpoint: 28.0°C (82°F) [RH = 67%]
Pressure (altimeter): 29.59 inches Hg (1002.0 mb)
Winds: from the WSW (250 degrees) at 2 MPH (2 knots; 1.0 m/s)
Visibility: 4 miles ( 6 km)
Ceiling: at least 12,000 feet AGL
Clouds: few clouds at 2000 feet AGL
scattered clouds at 2500 feet AGL
Weather: no significant weather observed at this time

METAR text: VEAT 241030Z 24003KT 7000 FEW020 SCT025 35/28 Q1003 NOSIG
Conditions at: VEAT (AGARTALA , IN) observed 1030 UTC 24 June 2019
Temperature: 35.0°C (95°F)
Dewpoint: 28.0°C (82°F) [RH = 67%]
Pressure (altimeter): 29.62 inches Hg (1003.0 mb)
Winds: from the WSW (240 degrees) at 3 MPH (3 knots; 1.5 m/s)
Visibility: 4 miles ( 7 km)
Ceiling: at least 12,000 feet AGL
Clouds: few clouds at 2000 feet AGL
scattered clouds at 2500 feet AGL
Weather: no significant weather observed at this time

METAR text: VEAT 241000Z 25003KT 7000 FEW020 SCT025 35/28 Q1003 NOSIG
Conditions at: VEAT (AGARTALA , IN) observed 1000 UTC 24 June 2019
Temperature: 35.0°C (95°F)
Dewpoint: 28.0°C (82°F) [RH = 67%]
Pressure (altimeter): 29.62 inches Hg (1003.0 mb)
Winds: from the WSW (250 degrees) at 3 MPH (3 knots; 1.5 m/s)
Visibility: 4 miles ( 7 km)
Ceiling: at least 12,000 feet AGL
Clouds: few clouds at 2000 feet AGL
scattered clouds at 2500 feet AGL
Weather: no significant weather observed at this time

METAR text: VEAT 240930Z 28002KT 7000 FEW020 SCT025 36/28 Q1004 NOSIG
Conditions at: VEAT (AGARTALA , IN) observed 0930 UTC 24 June 2019
Temperature: 36.0°C (97°F)
Dewpoint: 28.0°C (82°F) [RH = 64%]
Pressure (altimeter): 29.65 inches Hg (1004.0 mb)
Winds: from the W (280 degrees) at 2 MPH (2 knots; 1.0 m/s)
Visibility: 4 miles ( 7 km)
Ceiling: at least 12,000 feet AGL
Clouds: few clouds at 2000 feet AGL
scattered clouds at 2500 feet AGL
Weather: no significant weather observed at this time

METAR text: VEAT 240900Z 27003KT 7000 FEW020 SCT025 36/28 Q1004 NOSIG
Conditions at: VEAT (AGARTALA , IN) observed 0900 UTC 24 June 2019
Temperature: 36.0°C (97°F)
Dewpoint: 28.0°C (82°F) [RH = 64%]
Pressure (altimeter): 29.65 inches Hg (1004.0 mb)
Winds: from the W (270 degrees) at 3 MPH (3 knots; 1.5 m/s)
Visibility: 4 miles ( 7 km)
Ceiling: at least 12,000 feet AGL
Clouds: few clouds at 2000 feet AGL
scattered clouds at 2500 feet AGL
Weather: no significant weather observed at this time

METAR text: VEAT 240830Z 26003KT 7000 FEW020 36/28 Q1004 NOSIG
Conditions at: VEAT (AGARTALA , IN) observed 0830 UTC 24 June 2019
Temperature: 36.0°C (97°F)
Dewpoint: 28.0°C (82°F) [RH = 64%]
Pressure (altimeter): 29.65 inches Hg (1004.0 mb)
Winds: from the W (260 degrees) at 3 MPH (3 knots; 1.5 m/s)
Visibility: 4 miles ( 7 km)
Ceiling: at least 12,000 feet AGL
Clouds: few clouds at 2000 feet AGL
Weather: no significant weather observed at this time

METAR text: VEAT 240800Z 25003KT 7000 FEW020 36/28 Q1005 NOSIG
Conditions at: VEAT (AGARTALA , IN) observed 0800 UTC 24 June 2019
Temperature: 36.0°C (97°F)
Dewpoint: 28.0°C (82°F) [RH = 64%]
Pressure (altimeter): 29.68 inches Hg (1005.0 mb)
Winds: from the WSW (250 degrees) at 3 MPH (3 knots; 1.5 m/s)
Visibility: 4 miles ( 7 km)
Ceiling: at least 12,000 feet AGL
Clouds: few clouds at 2000 feet AGL
Weather: no significant weather observed at this time

METAR text: VEAT 240730Z 28004KT 7000 FEW020 36/27 Q1005 NOSIG
Conditions at: VEAT (AGARTALA , IN) observed 0730 UTC 24 June 2019
Temperature: 36.0°C (97°F)
Dewpoint: 27.0°C (81°F) [RH = 60%]
Pressure (altimeter): 29.68 inches Hg (1005.0 mb)
Winds: from the W (280 degrees) at 5 MPH (4 knots; 2.1 m/s)
Visibility: 4 miles ( 7 km)
Ceiling: at least 12,000 feet AGL
Clouds: few clouds at 2000 feet AGL
Weather: no significant weather observed at this time

METAR text: VEAT 240700Z 27003KT 7000 FEW020 36/28 Q1006 NOSIG
Conditions at: VEAT (AGARTALA , IN) observed 0700 UTC 24 June 2019
Temperature: 36.0°C (97°F)
Dewpoint: 28.0°C (82°F) [RH = 64%]
Pressure (altimeter): 29.70 inches Hg (1006.0 mb)
Winds: from the W (270 degrees) at 3 MPH (3 knots; 1.5 m/s)
Visibility: 4 miles ( 7 km)
Ceiling: at least 12,000 feet AGL
Clouds: few clouds at 2000 feet AGL
Weather: no significant weather observed at this time

METAR text: VEAT 240630Z 26003KT 7000 SCT020 35/28 Q1006 NOSIG
Conditions at: VEAT (AGARTALA , IN) observed 0630 UTC 24 June 2019
Temperature: 35.0°C (95°F)
Dewpoint: 28.0°C (82°F) [RH = 67%]
Pressure (altimeter): 29.70 inches Hg (1006.0 mb)
Winds: from the W (260 degrees) at 3 MPH (3 knots; 1.5 m/s)
Visibility: 4 miles ( 7 km)
Ceiling: at least 12,000 feet AGL
Clouds: scattered clouds at 2000 feet AGL
Weather: no significant weather observed at this time

METAR text: VEAT 240600Z 24003KT 7000 SCT020 35/28 Q1007 NOSIG
Conditions at: VEAT (AGARTALA , IN) observed 0600 UTC 24 June 2019
Temperature: 35.0°C (95°F)
Dewpoint: 28.0°C (82°F) [RH = 67%]
Pressure (altimeter): 29.73 inches Hg (1007.0 mb)
Winds: from the WSW (240 degrees) at 3 MPH (3 knots; 1.5 m/s)
Visibility: 4 miles ( 7 km)
Ceiling: at least 12,000 feet AGL
Clouds: scattered clouds at 2000 feet AGL
Weather: no significant weather observed at this time

METAR text: VEAT 240530Z 24003KT 7000 SCT020 SCT025 35/28 Q1007 NOSIG
Conditions at: VEAT (AGARTALA , IN) observed 0530 UTC 24 June 2019
Temperature: 35.0°C (95°F)
Dewpoint: 28.0°C (82°F) [RH = 67%]
Pressure (altimeter): 29.73 inches Hg (1007.0 mb)
Winds: from the WSW (240 degrees) at 3 MPH (3 knots; 1.5 m/s)
Visibility: 4 miles ( 7 km)
Ceiling: at least 12,000 feet AGL
Clouds: scattered clouds at 2000 feet AGL
scattered clouds at 2500 feet AGL
Weather: no significant weather observed at this time

METAR text: VEAT 240500Z 26004KT 7000 SCT020 SCT025 35/28 Q1007 NOSIG
Conditions at: VEAT (AGARTALA , IN) observed 0500 UTC 24 June 2019
Temperature: 35.0°C (95°F)
Dewpoint: 28.0°C (82°F) [RH = 67%]
Pressure (altimeter): 29.73 inches Hg (1007.0 mb)
Winds: from the W (260 degrees) at 5 MPH (4 knots; 2.1 m/s)
Visibility: 4 miles ( 7 km)
Ceiling: at least 12,000 feet AGL
Clouds: scattered clouds at 2000 feet AGL
scattered clouds at 2500 feet AGL
Weather: no significant weather observed at this time

METAR text: VEAT 240430Z 28003KT 7000 SCT020 SCT025 35/28 Q1007 NOSIG
Conditions at: VEAT (AGARTALA , IN) observed 0430 UTC 24 June 2019
Temperature: 35.0°C (95°F)
Dewpoint: 28.0°C (82°F) [RH = 67%]
Pressure (altimeter): 29.73 inches Hg (1007.0 mb)
Winds: from the W (280 degrees) at 3 MPH (3 knots; 1.5 m/s)
Visibility: 4 miles ( 7 km)
Ceiling: at least 12,000 feet AGL
Clouds: scattered clouds at 2000 feet AGL
scattered clouds at 2500 feet AGL
Weather: no significant weather observed at this time

METAR text: VEAT 240400Z 22003KT 7000 SCT020 SCT025 34/28 Q1008 NOSIG
Conditions at: VEAT (AGARTALA , IN) observed 0400 UTC 24 June 2019
Temperature: 34.0°C (93°F)
Dewpoint: 28.0°C (82°F) [RH = 71%]
Pressure (altimeter): 29.76 inches Hg (1008.0 mb)
Winds: from the SW (220 degrees) at 3 MPH (3 knots; 1.5 m/s)
Visibility: 4 miles ( 7 km)
Ceiling: at least 12,000 feet AGL
Clouds: scattered clouds at 2000 feet AGL
scattered clouds at 2500 feet AGL
Weather: no significant weather observed at this time

METAR text: VEAT 240330Z 22003KT 6000 SCT020 SCT025 33/27 Q1008 NOSIG
Conditions at: VEAT (AGARTALA , IN) observed 0330 UTC 24 June 2019
Temperature: 33.0°C (91°F)
Dewpoint: 27.0°C (81°F) [RH = 71%]
Pressure (altimeter): 29.76 inches Hg (1008.0 mb)
Winds: from the SW (220 degrees) at 3 MPH (3 knots; 1.5 m/s)
Visibility: 4 miles ( 6 km)
Ceiling: at least 12,000 feet AGL
Clouds: scattered clouds at 2000 feet AGL
scattered clouds at 2500 feet AGL
Weather: no significant weather observed at this time

METAR text: VEAT 240300Z 24004KT 5000 HZ SCT020 SCT025 33/27 Q1007 NOSIG
Conditions at: VEAT (AGARTALA , IN) observed 0300 UTC 24 June 2019
Temperature: 33.0°C (91°F)
Dewpoint: 27.0°C (81°F) [RH = 71%]
Pressure (altimeter): 29.73 inches Hg (1007.0 mb)
Winds: from the WSW (240 degrees) at 5 MPH (4 knots; 2.1 m/s)
Visibility: 3 miles ( 5 km)
Ceiling: at least 12,000 feet AGL
Clouds: scattered clouds at 2000 feet AGL
scattered clouds at 2500 feet AGL
Weather: HZ  (haze)

METAR text: VEAT 240230Z 24004KT 5000 HZ SCT020 SCT025 33/28 Q1007 NOSIG
Conditions at: VEAT (AGARTALA , IN) observed 0230 UTC 24 June 2019
Temperature: 33.0°C (91°F)
Dewpoint: 28.0°C (82°F) [RH = 75%]
Pressure (altimeter): 29.73 inches Hg (1007.0 mb)
Winds: from the WSW (240 degrees) at 5 MPH (4 knots; 2.1 m/s)
Visibility: 3 miles ( 5 km)
Ceiling: at least 12,000 feet AGL
Clouds: scattered clouds at 2000 feet AGL
scattered clouds at 2500 feet AGL
Weather: HZ  (haze)

METAR text: VEAT 240200Z 24003KT 4500 BR SCT020 SCT025 32/28 Q1007 BECMG 5000 BR
Conditions at: VEAT (AGARTALA , IN) observed 0200 UTC 24 June 2019
Temperature: 32.0°C (90°F)
Dewpoint: 28.0°C (82°F) [RH = 80%]
Pressure (altimeter): 29.73 inches Hg (1007.0 mb)
Winds: from the WSW (240 degrees) at 3 MPH (3 knots; 1.5 m/s)
Visibility: 2.80 miles (4.51 km)
Ceiling: at least 12,000 feet AGL
Clouds: scattered clouds at 2000 feet AGL
scattered clouds at 2500 feet AGL
Weather: BR  (mist)

METAR text: VEAT 240100Z 00000KT 4000 BR FEW025 30/28 Q1006 BECMG 5000 BR
Conditions at: VEAT (AGARTALA , IN) observed 0100 UTC 24 June 2019
Temperature: 30.0°C (86°F)
Dewpoint: 28.0°C (82°F) [RH = 89%]
Pressure (altimeter): 29.70 inches Hg (1006.0 mb)
Winds: calm
Visibility: 2.49 miles (4.01 km)
Ceiling: at least 12,000 feet AGL
Clouds: few clouds at 2500 feet AGL
Weather: BR  (mist)

METAR text: VEAT 240000Z 00000KT 4000 BR FEW025 27/27 Q1006 NOSIG
Conditions at: VEAT (AGARTALA , IN) observed 0000 UTC 24 June 2019
Temperature: 27.0°C (81°F)
Dewpoint: 27.0°C (81°F) [RH = 100%]
Pressure (altimeter): 29.70 inches Hg (1006.0 mb)
Winds: calm
Visibility: 2.49 miles (4.01 km)
Ceiling: at least 12,000 feet AGL
Clouds: few clouds at 2500 feet AGL
Weather: BR  (mist)

METAR text: VEAT 231400Z 00000KT 5000 BR FEW020 SCT100 30/27 Q1004 NOSIG
Conditions at: VEAT (AGARTALA , IN) observed 1400 UTC 23 June 2019
Temperature: 30.0°C (86°F)
Dewpoint: 27.0°C (81°F) [RH = 84%]
Pressure (altimeter): 29.65 inches Hg (1004.0 mb)
Winds: calm
Visibility: 3 miles ( 5 km)
Ceiling: at least 12,000 feet AGL
Clouds: few clouds at 2000 feet AGL
scattered clouds at 10000 feet AGL
Weather: BR  (mist)

METAR text: VEAT 231330Z 00000KT 5000 BR FEW020 SCT100 31/27 Q1004 NOSIG
Conditions at: VEAT (AGARTALA , IN) observed 1330 UTC 23 June 2019
Temperature: 31.0°C (88°F)
Dewpoint: 27.0°C (81°F) [RH = 79%]
Pressure (altimeter): 29.65 inches Hg (1004.0 mb)
Winds: calm
Visibility: 3 miles ( 5 km)
Ceiling: at least 12,000 feet AGL
Clouds: few clouds at 2000 feet AGL
scattered clouds at 10000 feet AGL
Weather: BR  (mist)

METAR text: VEAT 231300Z 00000KT 5000 BR FEW020 FEW030CB SCT100 31/27 Q1003 NOSIG
Conditions at: VEAT (AGARTALA , IN) observed 1300 UTC 23 June 2019
Temperature: 31.0°C (88°F)
Dewpoint: 27.0°C (81°F) [RH = 79%]
Pressure (altimeter): 29.62 inches Hg (1003.0 mb)
Winds: calm
Visibility: 3 miles ( 5 km)
Ceiling: at least 12,000 feet AGL
Clouds: few clouds at 2000 feet AGL
few clouds at 3000 feet AGL
scattered clouds at 10000 feet AGL
Weather: BR  (mist)

METAR text: VEAT 231230Z 22003KT 5000 BR SCT018 FEW030CB BKN100 32/27 Q1003 NOSIG
Conditions at: VEAT (AGARTALA , IN) observed 1230 UTC 23 June 2019
Temperature: 32.0°C (90°F)
Dewpoint: 27.0°C (81°F) [RH = 75%]
Pressure (altimeter): 29.62 inches Hg (1003.0 mb)
Winds: from the SW (220 degrees) at 3 MPH (3 knots; 1.5 m/s)
Visibility: 3 miles ( 5 km)
Ceiling: 10000 feet AGL
Clouds: scattered clouds at 1800 feet AGL
few clouds at 3000 feet AGL
broken clouds at 10000 feet AGL
Weather: BR  (mist)

METAR text: VEAT 231200Z 28004KT 5000 HZ SCT020 SCT025 FEW030CB BKN100 33/28 Q1003 NOSIG
Conditions at: VEAT (AGARTALA , IN) observed 1200 UTC 23 June 2019
Temperature: 33.0°C (91°F)
Dewpoint: 28.0°C (82°F) [RH = 75%]
Pressure (altimeter): 29.62 inches Hg (1003.0 mb)
Winds: from the W (280 degrees) at 5 MPH (4 knots; 2.1 m/s)
Visibility: 3 miles ( 5 km)
Ceiling: 10000 feet AGL
Clouds: scattered clouds at 2000 feet AGL
scattered clouds at 2500 feet AGL
few clouds at 3000 feet AGL
broken clouds at 10000 feet AGL
Weather: HZ  (haze)

METAR text: VEAT 231130Z 20003KT 5000 HZ SCT020 FEW030CB SCT100 34/28 Q1003 NOSIG
Conditions at: VEAT (AGARTALA , IN) observed 1130 UTC 23 June 2019
Temperature: 34.0°C (93°F)
Dewpoint: 28.0°C (82°F) [RH = 71%]
Pressure (altimeter): 29.62 inches Hg (1003.0 mb)
Winds: from the SSW (200 degrees) at 3 MPH (3 knots; 1.5 m/s)
Visibility: 3 miles ( 5 km)
Ceiling: at least 12,000 feet AGL
Clouds: scattered clouds at 2000 feet AGL
few clouds at 3000 feet AGL
scattered clouds at 10000 feet AGL
Weather: HZ  (haze)

METAR text: VEAT 231100Z 00000KT 6000 SCT020 FEW030CB SCT100 34/28 Q1003 TEMPO 5000 -RA
Conditions at: VEAT (AGARTALA , IN) observed 1100 UTC 23 June 2019
Temperature: 34.0°C (93°F)
Dewpoint: 28.0°C (82°F) [RH = 71%]
Pressure (altimeter): 29.62 inches Hg (1003.0 mb)
Winds: calm
Visibility: 4 miles ( 6 km)
Ceiling: at least 12,000 feet AGL
Clouds: scattered clouds at 2000 feet AGL
few clouds at 3000 feet AGL
scattered clouds at 10000 feet AGL
Weather: no significant weather observed at this time

METAR text: VEAT 231030Z 22004KT 6000 SCT020 FEW030CB SCT100 35/28 Q1003 NOSIG
Conditions at: VEAT (AGARTALA , IN) observed 1030 UTC 23 June 2019
Temperature: 35.0°C (95°F)
Dewpoint: 28.0°C (82°F) [RH = 67%]
Pressure (altimeter): 29.62 inches Hg (1003.0 mb)
Winds: from the SW (220 degrees) at 5 MPH (4 knots; 2.1 m/s)
Visibility: 4 miles ( 6 km)
Ceiling: at least 12,000 feet AGL
Clouds: scattered clouds at 2000 feet AGL
few clouds at 3000 feet AGL
scattered clouds at 10000 feet AGL
Weather: no significant weather observed at this time

METAR text: VEAT 231000Z 00000KT 6000 SCT020 FEW030CB SCT100 35/28 Q1003 NOSIG
Conditions at: VEAT (AGARTALA , IN) observed 1000 UTC 23 June 2019
Temperature: 35.0°C (95°F)
Dewpoint: 28.0°C (82°F) [RH = 67%]
Pressure (altimeter): 29.62 inches Hg (1003.0 mb)
Winds: calm
Visibility: 4 miles ( 6 km)
Ceiling: at least 12,000 feet AGL
Clouds: scattered clouds at 2000 feet AGL
few clouds at 3000 feet AGL
scattered clouds at 10000 feet AGL
Weather: no significant weather observed at this time

METAR text: VEAT 230930Z 22004KT 6000 SCT020 FEW030CB SCT100 34/28 Q1003 NOSIG
Conditions at: VEAT (AGARTALA , IN) observed 0930 UTC 23 June 2019
Temperature: 34.0°C (93°F)
Dewpoint: 28.0°C (82°F) [RH = 71%]
Pressure (altimeter): 29.62 inches Hg (1003.0 mb)
Winds: from the SW (220 degrees) at 5 MPH (4 knots; 2.1 m/s)
Visibility: 4 miles ( 6 km)
Ceiling: at least 12,000 feet AGL
Clouds: scattered clouds at 2000 feet AGL
few clouds at 3000 feet AGL
scattered clouds at 10000 feet AGL
Weather: no significant weather observed at this time

METAR text: VEAT 230900Z 00000KT 6000 FEW020 SCT025 FEW030CB 34/28 Q1003 NOSIG
Conditions at: VEAT (AGARTALA , IN) observed 0900 UTC 23 June 2019
Temperature: 34.0°C (93°F)
Dewpoint: 28.0°C (82°F) [RH = 71%]
Pressure (altimeter): 29.62 inches Hg (1003.0 mb)
Winds: calm
Visibility: 4 miles ( 6 km)
Ceiling: at least 12,000 feet AGL
Clouds: few clouds at 2000 feet AGL
scattered clouds at 2500 feet AGL
few clouds at 3000 feet AGL
Weather: no significant weather observed at this time

METAR text: VEAT 230830Z 28003KT 6000 SCT018 SCT025 FEW030CB 33/28 Q1004 NOSIG
Conditions at: VEAT (AGARTALA , IN) observed 0830 UTC 23 June 2019
Temperature: 33.0°C (91°F)
Dewpoint: 28.0°C (82°F) [RH = 75%]
Pressure (altimeter): 29.65 inches Hg (1004.0 mb)
Winds: from the W (280 degrees) at 3 MPH (3 knots; 1.5 m/s)
Visibility: 4 miles ( 6 km)
Ceiling: at least 12,000 feet AGL
Clouds: scattered clouds at 1800 feet AGL
scattered clouds at 2500 feet AGL
few clouds at 3000 feet AGL
Weather: no significant weather observed at this time

METAR text: VEAT 230800Z 22003KT 5000 BR SCT018 SCT025 FEW030CB 33/28 Q1004 NOSIG
Conditions at: VEAT (AGARTALA , IN) observed 0800 UTC 23 June 2019
Temperature: 33.0°C (91°F)
Dewpoint: 28.0°C (82°F) [RH = 75%]
Pressure (altimeter): 29.65 inches Hg (1004.0 mb)
Winds: from the SW (220 degrees) at 3 MPH (3 knots; 1.5 m/s)
Visibility: 3 miles ( 5 km)
Ceiling: at least 12,000 feet AGL
Clouds: scattered clouds at 1800 feet AGL
scattered clouds at 2500 feet AGL
few clouds at 3000 feet AGL
Weather: BR  (mist)

METAR text: VEAT 230730Z 00000KT 4500 BR SCT018 SCT025 FEW030CB 31/28 Q1005 BECMG 5000 HZ
Conditions at: VEAT (AGARTALA , IN) observed 0730 UTC 23 June 2019
Temperature: 31.0°C (88°F)
Dewpoint: 28.0°C (82°F) [RH = 84%]
Pressure (altimeter): 29.68 inches Hg (1005.0 mb)
Winds: calm
Visibility: 2.80 miles (4.51 km)
Ceiling: at least 12,000 feet AGL
Clouds: scattered clouds at 1800 feet AGL
scattered clouds at 2500 feet AGL
few clouds at 3000 feet AGL
Weather: BR  (mist)

METAR text: VEAT 230700Z 18004KT 4000 -RA SCT018 SCT025 FEW030CB 30/27 Q1005 NOSIG
Conditions at: VEAT (AGARTALA , IN) observed 0700 UTC 23 June 2019
Temperature: 30.0°C (86°F)
Dewpoint: 27.0°C (81°F) [RH = 84%]
Pressure (altimeter): 29.68 inches Hg (1005.0 mb)
Winds: from the S (180 degrees) at 5 MPH (4 knots; 2.1 m/s)
Visibility: 2.49 miles (4.01 km)
Ceiling: at least 12,000 feet AGL
Clouds: scattered clouds at 1800 feet AGL
scattered clouds at 2500 feet AGL
few clouds at 3000 feet AGL
Weather: -RA  (light rain)

METAR text: VEAT 230630Z 00000KT 6000 SCT020 SCT025 FEW030CB 35/28 Q1005 TEMPO 5000 -RA
Conditions at: VEAT (AGARTALA , IN) observed 0630 UTC 23 June 2019
Temperature: 35.0°C (95°F)
Dewpoint: 28.0°C (82°F) [RH = 67%]
Pressure (altimeter): 29.68 inches Hg (1005.0 mb)
Winds: calm
Visibility: 4 miles ( 6 km)
Ceiling: at least 12,000 feet AGL
Clouds: scattered clouds at 2000 feet AGL
scattered clouds at 2500 feet AGL
few clouds at 3000 feet AGL
Weather: no significant weather observed at this time

Forecast for: VEAT (AGARTALA , IN)
Text: TAF VEAT 241400Z 2415/2424 00000KT 5000 BR FEW020 SCT100
Forecast period: 1500 UTC 24 June 2019 to 0000 UTC 25 June 2019
Forecast type: FROM: standard forecast or significant change
Winds: calm
Visibility: 3 miles (5 km)
Ceiling: at least 12,000 feet AGL
Clouds: few clouds at 2000 feet AGL
scattered clouds at 10000 feet AGL
Weather: BR  (mist)
Text: TEMPO 2416/2420 3000 -RA SCT018 BKN100
Forecast period: 1600 to 2000 UTC 24 June 2019
Forecast type: TEMPORARY: The following changes expected for less than half the time period
Visibility: 1.86 miles (2.99 km)
Ceiling: 10000 feet AGL
Clouds: scattered clouds at 1800 feet AGL
broken clouds at 10000 feet AGL
Weather: -RA  (light rain)